Time;durP1;ratioP1;P1;durP2;ratioP2;P2;SDS_P1;SDS_P2;PMS_P1;PMS_P2;Temp;Humidity;BMP_temperature;BMP_pressure;BME280_temperature;BME280_humidity;BME280_pressure;Samples;Min_cycle;Max_cycle;Signal;HPM_P1;HPM_P2
2022/08/19 00:01:24;;;;;;;18.25;12.48;;;;;;;;;;5137632;27;20200;-48
2022/08/19 00:03:58;;;;;;;17.10;12.48;;;;;;;;;;5131349;27;20638;-46
2022/08/19 00:06:27;;;;;;;16.38;12.52;;;;;;;;;;5137601;27;20213;-47
2022/08/19 00:08:55;;;;;;;21.10;13.13;;;;;;;;;;5137407;27;20265;-48
2022/08/19 00:11:23;;;;;;;20.35;13.13;;;;;;;;;;5137164;27;20630;-49
2022/08/19 00:13:53;;;;;;;17.73;10.60;;;;;;;;;;5137336;27;20229;-49
2022/08/19 00:16:23;;;;;;;16.00;11.65;;;;;;;;;;5137140;27;20202;-47
2022/08/19 00:18:55;;;;;;;17.35;12.35;;;;;;;;;;5135994;27;20211;-49
2022/08/19 00:21:23;;;;;;;12.82;10.45;;;;;;;;;;5136984;27;20235;-50
2022/08/19 00:23:50;;;;;;;22.98;10.85;;;;;;;;;;5136966;27;20266;-47
2022/08/19 00:26:17;;;;;;;20.13;11.63;;;;;;;;;;5136834;27;20232;-50
2022/08/19 00:28:44;;;;;;;17.80;12.30;;;;;;;;;;5136590;27;20212;-49
2022/08/19 00:31:11;;;;;;;19.77;12.55;;;;;;;;;;5136868;27;20532;-51
2022/08/19 00:33:38;;;;;;;17.83;11.68;;;;;;;;;;5137065;27;20216;-48
2022/08/19 00:36:07;;;;;;;17.20;11.05;;;;;;;;;;5137024;27;20213;-47
2022/08/19 00:38:36;;;;;;;17.38;11.60;;;;;;;;;;5136220;27;20602;-46
2022/08/19 00:41:05;;;;;;;18.42;10.07;;;;;;;;;;5136206;27;20626;-47
2022/08/19 00:43:33;;;;;;;18.55;11.55;;;;;;;;;;5137001;27;20207;-48
2022/08/19 00:46:01;;;;;;;16.40;12.02;;;;;;;;;;5136340;27;20213;-48
2022/08/19 00:48:28;;;;;;;15.65;12.18;;;;;;;;;;5136258;27;20197;-48
2022/08/19 00:50:55;;;;;;;18.25;11.55;;;;;;;;;;5136605;27;20687;-51
2022/08/19 00:53:25;;;;;;;17.73;11.00;;;;;;;;;;5135453;27;20204;-48
2022/08/19 00:55:55;;;;;;;21.17;10.98;;;;;;;;;;5134877;27;20212;-49
2022/08/19 00:58:24;;;;;;;15.25;12.23;;;;;;;;;;5130582;27;20676;-47
2022/08/19 01:00:51;;;;;;;16.33;11.77;;;;;;;;;;5118202;27;20681;-48
2022/08/19 01:03:20;;;;;;;12.63;10.68;;;;;;;;;;5136969;27;20209;-48
2022/08/19 01:05:49;;;;;;;23.58;11.23;;;;;;;;;;5136903;27;20208;-47
2022/08/19 01:08:17;;;;;;;18.80;13.30;;;;;;;;;;5135389;27;20201;-47
2022/08/19 01:10:51;;;;;;;15.10;12.43;;;;;;;;;;5136442;27;20200;-51
2022/08/19 01:13:21;;;;;;;16.67;13.30;;;;;;;;;;5135591;27;20207;-50
2022/08/19 01:16:07;;;;;;;17.38;12.90;;;;;;;;;;5136714;27;20270;-52
2022/08/19 01:18:40;;;;;;;18.85;12.23;;;;;;;;;;5135745;27;20250;-48
2022/08/19 01:21:18;;;;;;;15.85;10.27;;;;;;;;;;5135559;27;20212;-49
2022/08/19 01:23:46;;;;;;;17.55;10.48;;;;;;;;;;5136190;27;20205;-50
2022/08/19 01:26:21;;;;;;;23.33;11.15;;;;;;;;;;5136480;27;20604;-50
2022/08/19 01:28:52;;;;;;;12.82;11.23;;;;;;;;;;5135530;27;20363;-50
2022/08/19 01:31:22;;;;;;;20.35;12.90;;;;;;;;;;5135201;27;20653;-49
2022/08/19 01:33:55;;;;;;;17.08;11.50;;;;;;;;;;5135076;27;20207;-50
2022/08/19 01:36:35;;;;;;;24.77;13.45;;;;;;;;;;5135828;27;20209;-48
2022/08/19 01:39:06;;;;;;;17.83;11.35;;;;;;;;;;5136357;27;20193;-50
2022/08/19 01:41:34;;;;;;;20.98;12.07;;;;;;;;;;5136375;27;20574;-51
2022/08/19 01:44:03;;;;;;;22.98;12.18;;;;;;;;;;5136000;27;20280;-48
2022/08/19 01:46:47;;;;;;;21.20;12.20;;;;;;;;;;5135442;27;20224;-47
2022/08/19 01:49:16;;;;;;;18.83;11.50;;;;;;;;;;5136168;27;20193;-49
2022/08/19 01:51:43;;;;;;;18.20;12.00;;;;;;;;;;5134321;27;20197;-52
2022/08/19 01:54:12;;;;;;;17.13;10.68;;;;;;;;;;5132111;27;20222;-47
2022/08/19 01:56:51;;;;;;;14.00;10.95;;;;;;;;;;5135943;27;20658;-47
2022/08/19 01:59:21;;;;;;;25.92;11.93;;;;;;;;;;5134623;28;20233;-48
2022/08/19 02:01:48;;;;;;;17.38;12.80;;;;;;;;;;5135283;27;20586;-48
2022/08/19 02:04:15;;;;;;;17.20;11.18;;;;;;;;;;5135835;27;20353;-49
2022/08/19 02:06:43;;;;;;;17.65;11.02;;;;;;;;;;5135190;28;20220;-49
2022/08/19 02:09:10;;;;;;;17.65;11.07;;;;;;;;;;5135489;27;20630;-47
2022/08/19 02:11:37;;;;;;;17.50;12.38;;;;;;;;;;5136298;27;20197;-50
2022/08/19 02:14:06;;;;;;;23.27;12.15;;;;;;;;;;5136033;27;20269;-49
2022/08/19 02:16:34;;;;;;;14.40;11.07;;;;;;;;;;5135336;27;20622;-49
2022/08/19 02:19:01;;;;;;;16.30;11.48;;;;;;;;;;5136086;27;20282;-49
2022/08/19 02:21:29;;;;;;;21.50;11.38;;;;;;;;;;5135140;28;20213;-48
2022/08/19 02:23:56;;;;;;;17.92;11.55;;;;;;;;;;5135584;27;20286;-49
2022/08/19 02:26:23;;;;;;;17.83;13.20;;;;;;;;;;5135669;27;20219;-47
2022/08/19 02:28:50;;;;;;;18.13;13.82;;;;;;;;;;5135606;27;20228;-48
2022/08/19 02:31:20;;;;;;;19.92;12.05;;;;;;;;;;5135621;27;20209;-48
2022/08/19 02:33:47;;;;;;;18.80;13.40;;;;;;;;;;5135110;27;20262;-48
2022/08/19 02:36:16;;;;;;;15.80;12.38;;;;;;;;;;5135052;28;20216;-48
2022/08/19 02:38:47;;;;;;;19.40;12.68;;;;;;;;;;5135107;27;20204;-50
2022/08/19 02:41:27;;;;;;;16.65;12.20;;;;;;;;;;5135042;27;20196;-48
2022/08/19 02:43:56;;;;;;;15.15;11.77;;;;;;;;;;5135741;27;20212;-51
2022/08/19 02:46:45;;;;;;;19.50;11.77;;;;;;;;;;5138227;27;20549;-49
2022/08/19 02:49:12;;;;;;;17.55;11.98;;;;;;;;;;5135516;27;20189;-52
2022/08/19 02:51:41;;;;;;;19.95;12.32;;;;;;;;;;5138047;27;20224;-48
2022/08/19 02:54:10;;;;;;;20.50;12.45;;;;;;;;;;5138595;27;20621;-50
2022/08/19 02:56:38;;;;;;;19.90;12.30;;;;;;;;;;5137934;27;20292;-51
2022/08/19 02:59:10;;;;;;;16.85;12.93;;;;;;;;;;5137428;27;20229;-48
2022/08/19 03:01:40;;;;;;;13.77;11.95;;;;;;;;;;5137836;27;20189;-48
2022/08/19 03:04:09;;;;;;;17.80;12.80;;;;;;;;;;5137961;27;20204;-51
2022/08/19 03:06:41;;;;;;;15.85;12.02;;;;;;;;;;5137524;27;20197;-48
2022/08/19 03:09:08;;;;;;;14.13;12.57;;;;;;;;;;5137532;27;20209;-51
2022/08/19 03:11:35;;;;;;;18.45;12.20;;;;;;;;;;5137434;27;20528;-50
2022/08/19 03:14:04;;;;;;;24.35;12.63;;;;;;;;;;5137500;27;20498;-53
2022/08/19 03:16:35;;;;;;;18.38;12.85;;;;;;;;;;5137810;27;20578;-52
2022/08/19 03:19:02;;;;;;;16.20;12.15;;;;;;;;;;5137911;27;20205;-51
2022/08/19 03:21:32;;;;;;;19.55;12.18;;;;;;;;;;5137592;27;20579;-51
2022/08/19 03:24:02;;;;;;;18.45;12.85;;;;;;;;;;5137299;27;20205;-51
2022/08/19 03:26:29;;;;;;;15.68;11.52;;;;;;;;;;5137187;27;20201;-51
2022/08/19 03:29:02;;;;;;;15.18;11.82;;;;;;;;;;5137814;27;20197;-48
2022/08/19 03:31:32;;;;;;;16.83;11.05;;;;;;;;;;5137782;27;20282;-47
2022/08/19 03:34:13;;;;;;;15.88;11.10;;;;;;;;;;5137316;27;20190;-53
2022/08/19 03:36:41;;;;;;;13.95;10.88;;;;;;;;;;5137140;27;20223;-49
2022/08/19 03:39:09;;;;;;;18.23;11.68;;;;;;;;;;5137547;27;20265;-48
2022/08/19 03:41:40;;;;;;;15.95;11.63;;;;;;;;;;5137309;27;20719;-49
2022/08/19 03:44:13;;;;;;;19.08;10.88;;;;;;;;;;5132707;27;20213;-49
2022/08/19 03:46:46;;;;;;;13.57;10.75;;;;;;;;;;5137486;27;20640;-51
2022/08/19 03:49:15;;;;;;;14.77;11.07;;;;;;;;;;5136899;27;20568;-50
2022/08/19 03:51:46;;;;;;;18.40;11.48;;;;;;;;;;5137892;27;20242;-48
2022/08/19 03:54:14;;;;;;;13.88;10.90;;;;;;;;;;5137412;27;20266;-48
2022/08/19 03:56:42;;;;;;;12.73;10.80;;;;;;;;;;5136062;27;20220;-48
2022/08/19 03:59:13;;;;;;;15.23;10.85;;;;;;;;;;5137356;27;20232;-48
2022/08/19 04:01:40;;;;;;;14.63;11.00;;;;;;;;;;5137171;27;20202;-48
2022/08/19 04:04:08;;;;;;;14.57;11.40;;;;;;;;;;5132267;27;20237;-51
2022/08/19 04:06:37;;;;;;;12.20;10.80;;;;;;;;;;5144033;27;20217;-52
2022/08/19 04:09:08;;;;;;;16.75;11.70;;;;;;;;;;5143751;27;20598;-50
2022/08/19 04:11:41;;;;;;;12.18;10.70;;;;;;;;;;5157406;27;20311;-47
2022/08/19 04:14:17;;;;;;;14.73;12.00;;;;;;;;;;5157143;27;20272;-48
2022/08/19 04:16:46;;;;;;;17.50;12.00;;;;;;;;;;5157362;27;20216;-52
2022/08/19 04:19:13;;;;;;;16.67;11.40;;;;;;;;;;5156034;27;20544;-49
2022/08/19 04:21:44;;;;;;;15.77;11.65;;;;;;;;;;5157330;27;20251;-47
2022/08/19 04:24:12;;;;;;;18.27;11.57;;;;;;;;;;5157006;27;20225;-48
2022/08/19 04:26:39;;;;;;;18.90;12.13;;;;;;;;;;5115652;28;20251;-48
2022/08/19 04:29:09;;;;;;;18.77;12.43;;;;;;;;;;5116941;27;20218;-51
2022/08/19 04:31:40;;;;;;;17.58;12.00;;;;;;;;;;5135902;27;20250;-49
2022/08/19 04:34:12;;;;;;;16.30;12.00;;;;;;;;;;5133830;27;20262;-48
2022/08/19 04:36:41;;;;;;;15.65;12.23;;;;;;;;;;5136809;27;20240;-48
2022/08/19 04:39:11;;;;;;;15.02;12.20;;;;;;;;;;5135510;27;20228;-49
2022/08/19 04:44:24;;;;;;;16.05;13.13;;;;;;;;;;5136052;27;20287;-48
2022/08/19 04:46:51;;;;;;;14.02;12.00;;;;;;;;;;5135685;27;20221;-50
2022/08/19 04:49:21;;;;;;;15.13;12.23;;;;;;;;;;5149217;27;20255;-48
2022/08/19 04:51:51;;;;;;;15.50;11.80;;;;;;;;;;5156511;27;20312;-49
2022/08/19 04:54:22;;;;;;;22.10;11.52;;;;;;;;;;5156810;27;20228;-49
2022/08/19 04:57:08;;;;;;;13.10;11.18;;;;;;;;;;5134306;27;20233;-48
2022/08/19 04:59:36;;;;;;;16.08;11.07;;;;;;;;;;5134374;27;20229;-48
2022/08/19 05:02:04;;;;;;;14.38;11.20;;;;;;;;;;5135166;27;20590;-49
2022/08/19 05:04:32;;;;;;;18.35;10.88;;;;;;;;;;5135707;27;20224;-48
2022/08/19 05:07:00;;;;;;;13.75;10.60;;;;;;;;;;5136117;27;20590;-51
2022/08/19 05:09:29;;;;;;;18.77;11.27;;;;;;;;;;5136496;27;20232;-47
2022/08/19 05:12:17;;;;;;;14.20;10.52;;;;;;;;;;5136412;27;20269;-52
2022/08/19 05:14:46;;;;;;;18.63;10.07;;;;;;;;;;5136423;27;20278;-50
2022/08/19 05:17:14;;;;;;;17.75;10.55;;;;;;;;;;5136966;27;20308;-48
2022/08/19 05:22:47;;;;;;;16.23;9.73;;;;;;;;;;5136161;27;20193;-49
2022/08/19 05:25:18;;;;;;;13.82;9.82;;;;;;;;;;5136664;27;20532;-48
2022/08/19 05:27:46;;;;;;;13.40;9.77;;;;;;;;;;5135939;27;20669;-51
2022/08/19 05:30:14;;;;;;;12.82;9.52;;;;;;;;;;5136193;27;20211;-52
2022/08/19 05:32:41;;;;;;;16.05;10.50;;;;;;;;;;5135930;27;20203;-51
2022/08/19 05:35:09;;;;;;;16.45;9.43;;;;;;;;;;5136142;27;20288;-48
2022/08/19 05:37:36;;;;;;;19.55;9.77;;;;;;;;;;5135996;27;20649;-51
2022/08/19 05:40:04;;;;;;;15.10;9.20;;;;;;;;;;5136736;27;20220;-48
2022/08/19 05:42:31;;;;;;;11.98;8.82;;;;;;;;;;5135767;27;20201;-51
2022/08/19 05:44:58;;;;;;;11.13;8.85;;;;;;;;;;5135201;27;20206;-49
2022/08/19 05:47:25;;;;;;;12.10;8.93;;;;;;;;;;5135818;27;20229;-51
2022/08/19 05:49:52;;;;;;;14.35;8.90;;;;;;;;;;5135742;27;20582;-49
2022/08/19 05:52:19;;;;;;;12.40;8.77;;;;;;;;;;5135561;27;20197;-50
2022/08/19 05:54:54;;;;;;;17.63;9.27;;;;;;;;;;5136559;28;20185;-50
2022/08/19 05:57:23;;;;;;;16.20;9.32;;;;;;;;;;5134389;27;20233;-48
2022/08/19 05:59:51;;;;;;;15.68;8.68;;;;;;;;;;5135598;27;20229;-50
2022/08/19 06:02:25;;;;;;;13.40;8.60;;;;;;;;;;5134360;27;20197;-51
2022/08/19 06:04:52;;;;;;;15.20;8.48;;;;;;;;;;5134210;27;20215;-51
2022/08/19 06:07:19;;;;;;;9.82;7.95;;;;;;;;;;5134969;28;20207;-51
2022/08/19 06:09:46;;;;;;;9.93;8.02;;;;;;;;;;5135799;27;20197;-52
2022/08/19 06:12:34;;;;;;;12.77;8.07;;;;;;;;;;5135860;27;20264;-54
2022/08/19 06:15:10;;;;;;;14.52;8.38;;;;;;;;;;5135670;27;20189;-54
2022/08/19 06:17:38;;;;;;;13.85;8.38;;;;;;;;;;5135676;28;20280;-54
2022/08/19 06:20:08;;;;;;;11.38;7.97;;;;;;;;;;5138564;27;20193;-55
2022/08/19 06:22:40;;;;;;;12.10;8.25;;;;;;;;;;5135201;27;20186;-54
2022/08/19 06:25:09;;;;;;;10.55;7.40;;;;;;;;;;5138871;27;20232;-55
2022/08/19 06:27:36;;;;;;;12.90;8.32;;;;;;;;;;5150948;27;20221;-55
2022/08/19 06:30:15;;;;;;;11.07;8.00;;;;;;;;;;5153678;27;20232;-55
2022/08/19 06:32:42;;;;;;;10.85;7.80;;;;;;;;;;5148594;27;20229;-55
2022/08/19 06:35:09;;;;;;;10.85;7.95;;;;;;;;;;5148801;27;20229;-51
2022/08/19 06:37:37;;;;;;;10.38;8.38;;;;;;;;;;5143593;27;20280;-55
2022/08/19 06:40:10;;;;;;;10.57;7.78;;;;;;;;;;5148258;27;20229;-56
2022/08/19 06:42:38;;;;;;;18.35;7.78;;;;;;;;;;5152884;27;20577;-56
2022/08/19 06:45:10;;;;;;;13.73;7.78;;;;;;;;;;5142320;27;20192;-55
2022/08/19 06:47:37;;;;;;;15.07;7.28;;;;;;;;;;5153033;27;20617;-56
2022/08/19 06:50:05;;;;;;;9.75;7.60;;;;;;;;;;5148542;27;20207;-56
2022/08/19 06:52:33;;;;;;;10.32;6.97;;;;;;;;;;5145612;27;20193;-55
2022/08/19 06:55:04;;;;;;;12.68;7.70;;;;;;;;;;5155645;27;20593;-56
2022/08/19 06:57:33;;;;;;;9.43;7.30;;;;;;;;;;5144277;27;20238;-56
2022/08/19 07:00:00;;;;;;;14.95;7.63;;;;;;;;;;5149904;27;20235;-56
2022/08/19 07:02:27;;;;;;;14.30;7.10;;;;;;;;;;5152023;27;20197;-54
2022/08/19 07:04:57;;;;;;;13.02;7.72;;;;;;;;;;5141813;27;20243;-56
2022/08/19 07:07:25;;;;;;;17.45;7.22;;;;;;;;;;5154844;27;20216;-55
2022/08/19 07:09:53;;;;;;;9.68;7.43;;;;;;;;;;5146426;27;20484;-55
2022/08/19 07:12:31;;;;;;;12.77;8.32;;;;;;;;;;5156107;27;20252;-55
2022/08/19 07:14:58;;;;;;;15.05;7.03;;;;;;;;;;5139914;27;20254;-54
2022/08/19 07:17:25;;;;;;;12.32;7.15;;;;;;;;;;5151712;27;20204;-55
2022/08/19 07:19:53;;;;;;;8.20;6.95;;;;;;;;;;5144334;27;20192;-56
2022/08/19 07:22:22;;;;;;;15.82;7.30;;;;;;;;;;5143632;27;20638;-55
2022/08/19 07:24:53;;;;;;;15.65;7.53;;;;;;;;;;5153680;27;20263;-52
2022/08/19 07:27:20;;;;;;;11.68;6.93;;;;;;;;;;5122203;27;20200;-55
2022/08/19 07:29:52;;;;;;;14.70;7.65;;;;;;;;;;5155968;27;20216;-54
2022/08/19 07:32:22;;;;;;;7.85;6.30;;;;;;;;;;5143674;27;20202;-55
2022/08/19 07:34:49;;;;;;;12.40;6.32;;;;;;;;;;5142953;27;20290;-55
2022/08/19 07:37:16;;;;;;;14.93;5.93;;;;;;;;;;5151993;27;20200;-55
2022/08/19 07:39:44;;;;;;;9.23;6.07;;;;;;;;;;5141914;27;20242;-55
2022/08/19 07:42:11;;;;;;;12.15;6.57;;;;;;;;;;5151679;27;20197;-55
2022/08/19 07:44:40;;;;;;;14.43;6.80;;;;;;;;;;5143455;27;20228;-55
2022/08/19 07:47:15;;;;;;;9.57;6.88;;;;;;;;;;5119408;27;20316;-56
2022/08/19 07:50:04;;;;;;;11.13;6.07;;;;;;;;;;5148861;27;20182;-55
2022/08/19 07:52:36;;;;;;;8.80;6.55;;;;;;;;;;5151619;27;20203;-56
2022/08/19 07:55:04;;;;;;;15.00;6.13;;;;;;;;;;5140693;27;20229;-55
2022/08/19 07:57:31;;;;;;;12.80;6.97;;;;;;;;;;5152744;27;20683;-55
2022/08/19 07:59:59;;;;;;;11.57;6.53;;;;;;;;;;5146527;27;20250;-55
2022/08/19 08:02:26;;;;;;;8.70;5.80;;;;;;;;;;5144777;27;20211;-55
2022/08/19 08:10:25;;;;;;;11.48;5.75;;;;;;;;;;5149903;27;20190;-55
2022/08/19 08:12:53;;;;;;;14.00;6.50;;;;;;;;;;5140886;27;20193;-56
2022/08/19 08:15:37;;;;;;;13.18;6.38;;;;;;;;;;5128050;27;20193;-55
2022/08/19 08:18:10;;;;;;;8.30;4.68;;;;;;;;;;5146903;27;20581;-56
2022/08/19 08:20:37;;;;;;;10.57;5.53;;;;;;;;;;5151347;27;20627;-56
2022/08/19 08:23:24;;;;;;;10.73;5.05;;;;;;;;;;5140527;27;20281;-55
2022/08/19 08:25:54;;;;;;;8.48;4.53;;;;;;;;;;5149263;27;20190;-56
2022/08/19 08:28:22;;;;;;;7.15;4.38;;;;;;;;;;5149154;27;20513;-55
2022/08/19 08:30:50;;;;;;;9.25;4.82;;;;;;;;;;5141173;27;20223;-56
2022/08/19 08:33:22;;;;;;;9.27;5.45;;;;;;;;;;5153596;27;20216;-55
2022/08/19 08:35:59;;;;;;;9.68;4.93;;;;;;;;;;5145818;27;20193;-56
2022/08/19 08:38:26;;;;;;;8.68;4.18;;;;;;;;;;5144180;27;20204;-55
2022/08/19 08:41:09;;;;;;;10.10;4.60;;;;;;;;;;5153857;27;20197;-55
2022/08/19 08:43:41;;;;;;;7.55;4.00;;;;;;;;;;5135784;27;20190;-56
2022/08/19 08:46:15;;;;;;;10.90;5.00;;;;;;;;;;5146494;27;20191;-55
2022/08/19 08:49:20;;;;;;;10.13;4.82;;;;;;;;;;5139668;27;20220;-55
2022/08/19 08:52:16;;;;;;;9.05;3.72;;;;;;;;;;5149624;27;20190;-55
2022/08/19 08:54:46;;;;;;;8.23;3.72;;;;;;;;;;5149717;27;20528;-56
2022/08/19 08:58:02;;;;;;;5.22;3.83;;;;;;;;;;5139558;27;20276;-56
2022/08/19 09:00:36;;;;;;;7.68;4.20;;;;;;;;;;5079889;28;20229;-55
2022/08/19 09:03:06;;;;;;;5.95;3.95;;;;;;;;;;5058775;28;20221;-55
2022/08/19 09:05:43;;;;;;;8.10;3.88;;;;;;;;;;5087877;28;20555;-54
2022/08/19 09:08:24;;;;;;;7.00;3.58;;;;;;;;;;5084174;28;20453;-55
2022/08/19 09:10:53;;;;;;;5.90;3.80;;;;;;;;;;5094570;28;20197;-53
2022/08/19 09:14:05;;;;;;;8.45;3.85;;;;;;;;;;5094273;28;20203;-54
2022/08/19 09:16:34;;;;;;;9.18;3.88;;;;;;;;;;5013877;28;20204;-54
2022/08/19 09:19:03;;;;;;;7.50;3.65;;;;;;;;;;5005057;28;20253;-52
2022/08/19 09:21:32;;;;;;;7.70;4.05;;;;;;;;;;4993175;28;20218;-55
2022/08/19 09:24:01;;;;;;;8.18;4.40;;;;;;;;;;4993169;28;20226;-50
2022/08/19 09:26:31;;;;;;;10.98;3.85;;;;;;;;;;4991354;28;20667;-55
2022/08/19 09:29:20;;;;;;;8.07;3.75;;;;;;;;;;4990771;28;20245;-52
2022/08/19 09:31:49;;;;;;;13.98;4.25;;;;;;;;;;5051464;28;20238;-51
2022/08/19 09:34:17;;;;;;;7.40;4.15;;;;;;;;;;5071947;28;20310;-55
2022/08/19 09:36:52;;;;;;;9.77;3.78;;;;;;;;;;5072219;28;20222;-49
2022/08/19 09:39:20;;;;;;;7.97;3.67;;;;;;;;;;5072423;28;20613;-49
2022/08/19 09:41:49;;;;;;;6.50;3.70;;;;;;;;;;5072375;28;20602;-50
2022/08/19 09:44:17;;;;;;;6.15;3.85;;;;;;;;;;5072289;28;20219;-48
2022/08/19 09:46:46;;;;;;;8.48;3.55;;;;;;;;;;5072365;28;20223;-48
2022/08/19 09:49:16;;;;;;;7.03;4.00;;;;;;;;;;5071718;28;20336;-48
2022/08/19 09:51:45;;;;;;;4.57;3.20;;;;;;;;;;5134114;27;20221;-49
2022/08/19 09:54:17;;;;;;;5.70;3.47;;;;;;;;;;5136590;27;20273;-48
2022/08/19 09:56:54;;;;;;;7.50;3.63;;;;;;;;;;5140190;27;20259;-49
2022/08/19 09:59:22;;;;;;;5.97;3.28;;;;;;;;;;5140395;27;20240;-49
2022/08/19 10:01:49;;;;;;;6.32;3.42;;;;;;;;;;5140386;27;20197;-48
2022/08/19 10:04:16;;;;;;;6.07;3.33;;;;;;;;;;5139810;27;20633;-48
2022/08/19 10:06:49;;;;;;;8.75;3.25;;;;;;;;;;5139922;27;20193;-48
2022/08/19 10:09:20;;;;;;;8.30;3.67;;;;;;;;;;5139744;27;20228;-52
2022/08/19 10:12:02;;;;;;;5.30;3.58;;;;;;;;;;5139905;27;20201;-48
2022/08/19 10:14:30;;;;;;;4.95;3.42;;;;;;;;;;5139839;27;20201;-48
2022/08/19 10:16:57;;;;;;;7.75;4.50;;;;;;;;;;5140123;27;20201;-48
2022/08/19 10:19:25;;;;;;;5.40;3.38;;;;;;;;;;5139747;27;20198;-48
2022/08/19 10:21:53;;;;;;;11.02;3.58;;;;;;;;;;5138471;27;20521;-49
2022/08/19 10:24:27;;;;;;;9.02;3.38;;;;;;;;;;5132570;27;20226;-49
2022/08/19 10:26:55;;;;;;;6.47;3.63;;;;;;;;;;5137666;27;20217;-48
2022/08/19 10:29:29;;;;;;;7.20;3.40;;;;;;;;;;5135421;27;20221;-53
2022/08/19 10:32:05;;;;;;;6.82;3.35;;;;;;;;;;5138910;27;20288;-49
2022/08/19 10:34:37;;;;;;;5.65;3.53;;;;;;;;;;5136539;27;20248;-48
2022/08/19 10:37:17;;;;;;;15.63;3.85;;;;;;;;;;5136912;27;20416;-51
2022/08/19 10:39:50;;;;;;;14.70;4.07;;;;;;;;;;5136770;27;20208;-52
2022/08/19 10:42:18;;;;;;;10.32;3.80;;;;;;;;;;5136074;27;20224;-53
2022/08/19 10:44:46;;;;;;;7.03;3.70;;;;;;;;;;5136703;27;20210;-50
2022/08/19 10:47:13;;;;;;;8.85;3.78;;;;;;;;;;5135913;27;20225;-54
2022/08/19 10:52:40;;;;;;;6.78;3.53;;;;;;;;;;5131296;27;20250;-53
2022/08/19 10:58:13;;;;;;;6.75;3.70;;;;;;;;;;5135546;27;20225;-54
2022/08/19 11:00:41;;;;;;;5.53;3.60;;;;;;;;;;5135416;27;20225;-52
2022/08/19 11:03:08;;;;;;;4.63;3.50;;;;;;;;;;5138255;27;20282;-52
2022/08/19 11:05:37;;;;;;;6.03;3.70;;;;;;;;;;5137659;27;20289;-47
2022/08/19 11:08:11;;;;;;;10.73;3.92;;;;;;;;;;5137703;27;20218;-47
2022/08/19 11:10:50;;;;;;;8.65;3.33;;;;;;;;;;5138018;27;20579;-47
2022/08/19 11:13:17;;;;;;;6.97;3.53;;;;;;;;;;5138463;27;20213;-48
2022/08/19 11:15:47;;;;;;;8.82;2.80;;;;;;;;;;5137691;27;20282;-47
2022/08/19 11:18:14;;;;;;;7.32;3.58;;;;;;;;;;5137853;27;20671;-46
2022/08/19 11:20:41;;;;;;;7.63;3.38;;;;;;;;;;5137536;27;20233;-45
2022/08/19 11:23:08;;;;;;;8.82;3.30;;;;;;;;;;5137430;27;20308;-46
2022/08/19 11:25:38;;;;;;;4.78;2.97;;;;;;;;;;5137427;27;20228;-46
2022/08/19 11:28:05;;;;;;;6.63;3.45;;;;;;;;;;5137694;27;20622;-47
2022/08/19 11:30:33;;;;;;;5.63;3.35;;;;;;;;;;5137240;27;20244;-46
2022/08/19 11:33:00;;;;;;;5.03;3.53;;;;;;;;;;5137547;27;20225;-46
2022/08/19 11:35:28;;;;;;;8.15;4.05;;;;;;;;;;5134146;27;20539;-51
2022/08/19 11:37:57;;;;;;;6.55;3.63;;;;;;;;;;5135565;27;20224;-50
2022/08/19 11:40:24;;;;;;;5.47;3.38;;;;;;;;;;5136705;27;20669;-52
2022/08/19 11:42:55;;;;;;;7.93;3.50;;;;;;;;;;5134515;27;20599;-51
2022/08/19 11:45:23;;;;;;;7.40;3.63;;;;;;;;;;5134319;27;20240;-50
2022/08/19 11:47:50;;;;;;;6.45;3.05;;;;;;;;;;5137451;27;20225;-52
2022/08/19 11:50:18;;;;;;;7.65;3.63;;;;;;;;;;5137525;27;20225;-52
2022/08/19 11:52:45;;;;;;;8.77;3.55;;;;;;;;;;5136717;27;20253;-48
2022/08/19 11:55:13;;;;;;;5.57;3.40;;;;;;;;;;5136978;27;20274;-47
2022/08/19 11:57:41;;;;;;;6.07;3.45;;;;;;;;;;5136572;27;20218;-48
2022/08/19 12:00:10;;;;;;;6.25;3.38;;;;;;;;;;5136782;27;20321;-48
2022/08/19 12:02:37;;;;;;;5.28;3.40;;;;;;;;;;5136717;27;20227;-47
2022/08/19 12:05:05;;;;;;;6.90;3.72;;;;;;;;;;5136682;27;20742;-47
2022/08/19 12:07:38;;;;;;;5.53;3.53;;;;;;;;;;5136107;27;20217;-49
2022/08/19 12:10:05;;;;;;;6.80;3.15;;;;;;;;;;5136594;27;20308;-49
2022/08/19 12:12:34;;;;;;;8.05;3.80;;;;;;;;;;5136497;27;20575;-49
2022/08/19 12:15:02;;;;;;;9.50;3.97;;;;;;;;;;5136701;27;20225;-46
2022/08/19 12:17:30;;;;;;;6.80;3.35;;;;;;;;;;5135819;27;20243;-49
2022/08/19 12:19:57;;;;;;;9.45;3.58;;;;;;;;;;5136929;27;20602;-47
2022/08/19 12:22:24;;;;;;;8.05;3.47;;;;;;;;;;5135916;27;20289;-46
2022/08/19 12:24:53;;;;;;;8.35;3.60;;;;;;;;;;5136364;27;20228;-49
2022/08/19 12:27:20;;;;;;;8.90;3.42;;;;;;;;;;5136404;27;20221;-48
2022/08/19 12:30:08;;;;;;;10.82;3.33;;;;;;;;;;5128015;27;20244;-53
2022/08/19 12:32:36;;;;;;;8.20;3.28;;;;;;;;;;5118893;27;20225;-48
2022/08/19 12:35:04;;;;;;;6.72;3.33;;;;;;;;;;5121083;27;20670;-47
2022/08/19 12:37:32;;;;;;;6.18;3.65;;;;;;;;;;5119714;27;20229;-49
2022/08/19 12:39:59;;;;;;;8.93;3.40;;;;;;;;;;5156769;27;20224;-52
2022/08/19 12:42:26;;;;;;;11.40;3.58;;;;;;;;;;5156535;27;20220;-51
2022/08/19 12:44:53;;;;;;;5.07;3.10;;;;;;;;;;5156869;27;20236;-52
2022/08/19 12:47:21;;;;;;;6.53;3.35;;;;;;;;;;5157024;27;20225;-51
2022/08/19 12:49:48;;;;;;;7.93;3.60;;;;;;;;;;5154220;27;20243;-49
2022/08/19 12:52:25;;;;;;;5.40;3.20;;;;;;;;;;5134725;27;20231;-48
2022/08/19 12:54:57;;;;;;;11.48;3.70;;;;;;;;;;5134625;27;20241;-54
2022/08/19 12:57:25;;;;;;;5.03;2.67;;;;;;;;;;5135889;27;20551;-50
2022/08/19 13:00:20;;;;;;;5.38;2.63;;;;;;;;;;5135543;27;20244;-48
2022/08/19 13:02:50;;;;;;;9.55;3.08;;;;;;;;;;5135577;27;20229;-49
2022/08/19 13:05:24;;;;;;;7.20;3.10;;;;;;;;;;5135080;27;20673;-47
2022/08/19 13:07:52;;;;;;;9.20;2.90;;;;;;;;;;5139034;27;20229;-50
2022/08/19 13:10:20;;;;;;;8.30;3.25;;;;;;;;;;5154577;27;20682;-52
2022/08/19 13:12:49;;;;;;;5.28;2.75;;;;;;;;;;5148516;27;20684;-52
2022/08/19 13:15:20;;;;;;;7.22;2.65;;;;;;;;;;5155085;27;20639;-49
2022/08/19 13:17:52;;;;;;;8.40;3.03;;;;;;;;;;5153199;27;20284;-52
2022/08/19 13:20:20;;;;;;;8.90;2.60;;;;;;;;;;5154793;27;20637;-52
2022/08/19 13:22:48;;;;;;;6.00;2.80;;;;;;;;;;5152880;27;20284;-50
2022/08/19 13:25:17;;;;;;;12.52;2.78;;;;;;;;;;5154874;27;20232;-49
2022/08/19 13:27:44;;;;;;;5.38;2.90;;;;;;;;;;5152875;27;20333;-51
2022/08/19 13:33:10;;;;;;;13.02;3.40;;;;;;;;;;5152843;27;20567;-52
2022/08/19 13:35:43;;;;;;;6.30;3.08;;;;;;;;;;5153422;27;20583;-49
2022/08/19 13:38:12;;;;;;;8.20;2.83;;;;;;;;;;5141666;27;20225;-49
2022/08/19 13:40:40;;;;;;;6.28;3.08;;;;;;;;;;5132715;27;20221;-47
2022/08/19 13:43:09;;;;;;;5.18;2.65;;;;;;;;;;5133388;27;20225;-50
2022/08/19 13:45:55;;;;;;;10.98;3.20;;;;;;;;;;5134119;27;20225;-49
2022/08/19 13:48:23;;;;;;;9.32;3.20;;;;;;;;;;5131821;27;20515;-49
2022/08/19 13:50:50;;;;;;;6.05;2.30;;;;;;;;;;5134410;27;20294;-52
2022/08/19 13:53:18;;;;;;;8.60;2.30;;;;;;;;;;5134847;27;20229;-52
2022/08/19 13:55:45;;;;;;;11.48;2.83;;;;;;;;;;5134614;27;20225;-49
2022/08/19 13:58:12;;;;;;;8.45;2.47;;;;;;;;;;5135109;27;20277;-53
2022/08/19 14:00:42;;;;;;;8.80;3.10;;;;;;;;;;5134398;27;20224;-55
2022/08/19 14:03:10;;;;;;;7.20;2.60;;;;;;;;;;5135274;27;20229;-48
2022/08/19 14:05:38;;;;;;;9.85;2.60;;;;;;;;;;5134540;27;20247;-51
2022/08/19 14:08:05;;;;;;;6.82;2.70;;;;;;;;;;5140086;27;20681;-51
2022/08/19 14:10:33;;;;;;;7.70;2.95;;;;;;;;;;5154957;27;20238;-48
2022/08/19 14:13:02;;;;;;;9.25;3.05;;;;;;;;;;5152972;27;20220;-48
2022/08/19 14:15:29;;;;;;;10.95;2.75;;;;;;;;;;5154052;27;20221;-49
2022/08/19 14:17:56;;;;;;;7.53;2.92;;;;;;;;;;5155514;27;20733;-48
2022/08/19 14:20:23;;;;;;;11.55;2.72;;;;;;;;;;5155031;27;20228;-52
2022/08/19 14:22:53;;;;;;;8.23;2.72;;;;;;;;;;5130264;27;20220;-50
2022/08/19 14:25:23;;;;;;;12.30;2.97;;;;;;;;;;5113706;28;20222;-51
2022/08/19 14:27:50;;;;;;;7.38;3.08;;;;;;;;;;5113715;27;20233;-49
2022/08/19 14:30:29;;;;;;;12.50;3.10;;;;;;;;;;5111394;28;20229;-50
2022/08/19 14:32:58;;;;;;;7.82;2.28;;;;;;;;;;5112235;27;20658;-49
2022/08/19 14:35:26;;;;;;;8.30;3.20;;;;;;;;;;5113253;28;20290;-51
2022/08/19 14:37:55;;;;;;;8.02;2.67;;;;;;;;;;5118621;27;20220;-49
2022/08/19 14:40:27;;;;;;;7.88;3.30;;;;;;;;;;5136101;27;20217;-52
2022/08/19 14:43:03;;;;;;;7.32;2.50;;;;;;;;;;5138728;27;20221;-53
2022/08/19 14:45:33;;;;;;;10.75;2.70;;;;;;;;;;5138175;27;20225;-48
2022/08/19 14:48:03;;;;;;;8.10;2.50;;;;;;;;;;5138513;27;20221;-49
2022/08/19 14:50:30;;;;;;;7.10;2.75;;;;;;;;;;5148175;27;20229;-50
2022/08/19 14:53:00;;;;;;;9.18;2.50;;;;;;;;;;5159291;27;20229;-50
2022/08/19 14:55:32;;;;;;;14.60;2.90;;;;;;;;;;5159103;27;20622;-58
2022/08/19 14:57:59;;;;;;;9.25;2.78;;;;;;;;;;5142016;27;20267;-60
2022/08/19 15:00:30;;;;;;;9.48;2.85;;;;;;;;;;5139144;27;20229;-58
2022/08/19 15:02:58;;;;;;;6.07;2.40;;;;;;;;;;5133397;27;20221;-56
2022/08/19 15:05:26;;;;;;;5.50;2.35;;;;;;;;;;5138976;27;20198;-50
2022/08/19 15:07:54;;;;;;;8.10;3.05;;;;;;;;;;5135651;27;20699;-53
2022/08/19 15:10:23;;;;;;;9.82;2.72;;;;;;;;;;5135413;27;20613;-59